sensor_id;sensor_type;location;lat;lon;timestamp;temperature;humidity
4374;DHT22;2201;51.100;6.814;2022-11-04T00:02:01;11.40;98.20
4374;DHT22;2201;51.100;6.814;2022-11-04T00:04:29;11.40;98.20
4374;DHT22;2201;51.100;6.814;2022-11-04T00:06:56;11.40;98.20
4374;DHT22;2201;51.100;6.814;2022-11-04T00:09:24;11.40;98.20
4374;DHT22;2201;51.100;6.814;2022-11-04T00:11:51;11.40;98.20
4374;DHT22;2201;51.100;6.814;2022-11-04T00:14:36;11.30;98.20
4374;DHT22;2201;51.100;6.814;2022-11-04T00:17:05;11.30;98.20
4374;DHT22;2201;51.100;6.814;2022-11-04T00:19:47;11.30;98.20
4374;DHT22;2201;51.100;6.814;2022-11-04T00:22:32;11.30;98.20
4374;DHT22;2201;51.100;6.814;2022-11-04T00:25:16;11.30;98.20
4374;DHT22;2201;51.100;6.814;2022-11-04T00:28:05;11.30;98.20
4374;DHT22;2201;51.100;6.814;2022-11-04T00:30:54;11.30;98.20
4374;DHT22;2201;51.100;6.814;2022-11-04T00:33:23;11.30;98.20
4374;DHT22;2201;51.100;6.814;2022-11-04T00:35:54;11.20;98.20
4374;DHT22;2201;51.100;6.814;2022-11-04T00:38:21;11.20;98.20
4374;DHT22;2201;51.100;6.814;2022-11-04T00:40:47;11.20;98.20
4374;DHT22;2201;51.100;6.814;2022-11-04T00:43:14;11.20;98.20
4374;DHT22;2201;51.100;6.814;2022-11-04T00:45:41;11.10;98.20
4374;DHT22;2201;51.100;6.814;2022-11-04T00:48:08;11.10;98.20
4374;DHT22;2201;51.100;6.814;2022-11-04T00:50:36;11.10;98.20
4374;DHT22;2201;51.100;6.814;2022-11-04T00:53:04;11.10;98.20
4374;DHT22;2201;51.100;6.814;2022-11-04T00:55:30;11.20;98.20
4374;DHT22;2201;51.100;6.814;2022-11-04T00:57:57;11.20;98.20
4374;DHT22;2201;51.100;6.814;2022-11-04T01:00:24;11.20;98.20
4374;DHT22;2201;51.100;6.814;2022-11-04T01:02:51;11.20;98.20
4374;DHT22;2201;51.100;6.814;2022-11-04T01:05:18;11.20;98.20
4374;DHT22;2201;51.100;6.814;2022-11-04T01:07:46;11.20;98.20
4374;DHT22;2201;51.100;6.814;2022-11-04T01:10:13;11.20;98.20
4374;DHT22;2201;51.100;6.814;2022-11-04T01:12:40;11.20;98.20
4374;DHT22;2201;51.100;6.814;2022-11-04T01:15:08;11.20;98.20
4374;DHT22;2201;51.100;6.814;2022-11-04T01:17:34;11.20;98.20
4374;DHT22;2201;51.100;6.814;2022-11-04T01:20:01;11.30;98.20
4374;DHT22;2201;51.100;6.814;2022-11-04T01:22:28;11.30;98.20
4374;DHT22;2201;51.100;6.814;2022-11-04T01:24:56;11.30;98.20
4374;DHT22;2201;51.100;6.814;2022-11-04T01:27:23;11.30;98.20
4374;DHT22;2201;51.100;6.814;2022-11-04T01:29:50;11.30;98.20
4374;DHT22;2201;51.100;6.814;2022-11-04T01:32:16;11.30;98.20
4374;DHT22;2201;51.100;6.814;2022-11-04T01:34:43;11.30;98.20
4374;DHT22;2201;51.100;6.814;2022-11-04T01:37:11;11.20;98.20
4374;DHT22;2201;51.100;6.814;2022-11-04T01:39:38;11.20;98.20
4374;DHT22;2201;51.100;6.814;2022-11-04T01:42:08;11.20;98.20
4374;DHT22;2201;51.100;6.814;2022-11-04T01:44:52;11.20;98.20
4374;DHT22;2201;51.100;6.814;2022-11-04T01:47:24;11.10;98.20
4374;DHT22;2201;51.100;6.814;2022-11-04T01:49:55;11.10;98.20
4374;DHT22;2201;51.100;6.814;2022-11-04T01:52:27;11.00;98.20
4374;DHT22;2201;51.100;6.814;2022-11-04T01:54:57;11.00;98.20
4374;DHT22;2201;51.100;6.814;2022-11-04T01:57:29;11.00;98.20
4374;DHT22;2201;51.100;6.814;2022-11-04T02:00:01;10.90;98.20
4374;DHT22;2201;51.100;6.814;2022-11-04T02:02:37;10.90;98.20
4374;DHT22;2201;51.100;6.814;2022-11-04T02:05:06;10.80;98.20
4374;DHT22;2201;51.100;6.814;2022-11-04T02:07:33;10.80;98.20
4374;DHT22;2201;51.100;6.814;2022-11-04T02:10:00;10.80;98.20
4374;DHT22;2201;51.100;6.814;2022-11-04T02:12:29;10.80;98.20
4374;DHT22;2201;51.100;6.814;2022-11-04T02:15:13;10.70;98.20
4374;DHT22;2201;51.100;6.814;2022-11-04T02:21:10;10.70;98.20
4374;DHT22;2201;51.100;6.814;2022-11-04T02:23:59;10.70;98.20
4374;DHT22;2201;51.100;6.814;2022-11-04T02:27:06;10.60;98.20
4374;DHT22;2201;51.100;6.814;2022-11-04T02:30:07;10.60;98.20
4374;DHT22;2201;51.100;6.814;2022-11-04T02:32:57;10.60;98.20
4374;DHT22;2201;51.100;6.814;2022-11-04T02:35:35;10.50;98.20
4374;DHT22;2201;51.100;6.814;2022-11-04T02:38:11;10.50;98.20
4374;DHT22;2201;51.100;6.814;2022-11-04T02:40:41;10.50;98.20
4374;DHT22;2201;51.100;6.814;2022-11-04T02:43:14;10.40;98.20
4374;DHT22;2201;51.100;6.814;2022-11-04T02:45:47;10.40;98.20
4374;DHT22;2201;51.100;6.814;2022-11-04T02:48:21;10.40;98.20
4374;DHT22;2201;51.100;6.814;2022-11-04T02:50:55;10.30;98.20
4374;DHT22;2201;51.100;6.814;2022-11-04T02:53:28;10.30;98.20
4374;DHT22;2201;51.100;6.814;2022-11-04T02:55:57;10.20;98.20
4374;DHT22;2201;51.100;6.814;2022-11-04T02:58:29;10.20;98.20
4374;DHT22;2201;51.100;6.814;2022-11-04T03:01:00;10.10;98.20
4374;DHT22;2201;51.100;6.814;2022-11-04T03:03:30;10.10;98.20
4374;DHT22;2201;51.100;6.814;2022-11-04T03:06:00;10.10;98.20
4374;DHT22;2201;51.100;6.814;2022-11-04T03:08:30;10.00;98.20
4374;DHT22;2201;51.100;6.814;2022-11-04T03:11:01;10.00;98.20
4374;DHT22;2201;51.100;6.814;2022-11-04T03:13:32;10.00;98.20
4374;DHT22;2201;51.100;6.814;2022-11-04T03:16:05;9.90;98.20
4374;DHT22;2201;51.100;6.814;2022-11-04T03:18:39;9.90;98.20
4374;DHT22;2201;51.100;6.814;2022-11-04T03:21:10;9.80;98.20
4374;DHT22;2201;51.100;6.814;2022-11-04T03:23:39;9.80;98.20
4374;DHT22;2201;51.100;6.814;2022-11-04T03:26:10;9.80;98.20
4374;DHT22;2201;51.100;6.814;2022-11-04T03:28:42;9.80;98.20
4374;DHT22;2201;51.100;6.814;2022-11-04T03:31:18;9.80;98.20
4374;DHT22;2201;51.100;6.814;2022-11-04T03:33:48;9.70;98.20
4374;DHT22;2201;51.100;6.814;2022-11-04T03:36:16;9.70;98.20
4374;DHT22;2201;51.100;6.814;2022-11-04T03:38:43;9.70;98.20
4374;DHT22;2201;51.100;6.814;2022-11-04T03:41:14;9.70;98.20
4374;DHT22;2201;51.100;6.814;2022-11-04T03:43:43;9.70;98.20
4374;DHT22;2201;51.100;6.814;2022-11-04T03:46:12;9.60;98.20
4374;DHT22;2201;51.100;6.814;2022-11-04T03:48:39;9.60;98.20
4374;DHT22;2201;51.100;6.814;2022-11-04T03:51:08;9.70;98.20
4374;DHT22;2201;51.100;6.814;2022-11-04T03:53:35;9.70;98.20
4374;DHT22;2201;51.100;6.814;2022-11-04T03:56:15;9.70;98.20
4374;DHT22;2201;51.100;6.814;2022-11-04T03:58:56;9.70;98.20
4374;DHT22;2201;51.100;6.814;2022-11-04T04:01:36;9.70;98.20
4374;DHT22;2201;51.100;6.814;2022-11-04T04:04:10;9.70;98.20
4374;DHT22;2201;51.100;6.814;2022-11-04T04:06:42;9.70;98.20
4374;DHT22;2201;51.100;6.814;2022-11-04T04:09:14;9.70;98.20
4374;DHT22;2201;51.100;6.814;2022-11-04T04:11:50;9.60;98.20
4374;DHT22;2201;51.100;6.814;2022-11-04T04:14:22;9.60;98.20
4374;DHT22;2201;51.100;6.814;2022-11-04T04:17:08;9.50;98.20
4374;DHT22;2201;51.100;6.814;2022-11-04T04:19:36;9.50;98.20
4374;DHT22;2201;51.100;6.814;2022-11-04T04:22:08;9.50;98.20
4374;DHT22;2201;51.100;6.814;2022-11-04T04:24:40;9.50;98.20
4374;DHT22;2201;51.100;6.814;2022-11-04T04:27:25;9.50;98.20
4374;DHT22;2201;51.100;6.814;2022-11-04T04:29:59;9.50;98.20
4374;DHT22;2201;51.100;6.814;2022-11-04T04:32:29;9.50;98.20
4374;DHT22;2201;51.100;6.814;2022-11-04T04:34:58;9.50;98.20
4374;DHT22;2201;51.100;6.814;2022-11-04T04:37:40;9.50;98.20
4374;DHT22;2201;51.100;6.814;2022-11-04T04:40:11;9.50;98.20
4374;DHT22;2201;51.100;6.814;2022-11-04T04:42:56;9.60;98.20
4374;DHT22;2201;51.100;6.814;2022-11-04T04:45:42;9.50;98.20
4374;DHT22;2201;51.100;6.814;2022-11-04T04:48:15;9.50;98.20
4374;DHT22;2201;51.100;6.814;2022-11-04T04:50:44;9.50;98.20
4374;DHT22;2201;51.100;6.814;2022-11-04T04:53:13;9.40;98.20
4374;DHT22;2201;51.100;6.814;2022-11-04T04:55:39;9.40;98.20
4374;DHT22;2201;51.100;6.814;2022-11-04T04:58:06;9.40;98.20
4374;DHT22;2201;51.100;6.814;2022-11-04T05:00:33;9.30;98.20
4374;DHT22;2201;51.100;6.814;2022-11-04T05:03:00;9.20;98.20
4374;DHT22;2201;51.100;6.814;2022-11-04T05:05:28;9.20;98.20
4374;DHT22;2201;51.100;6.814;2022-11-04T05:07:55;9.20;98.20
4374;DHT22;2201;51.100;6.814;2022-11-04T05:10:21;9.10;98.20
4374;DHT22;2201;51.100;6.814;2022-11-04T05:12:48;9.10;98.20
4374;DHT22;2201;51.100;6.814;2022-11-04T05:15:33;9.10;98.20
4374;DHT22;2201;51.100;6.814;2022-11-04T05:18:01;9.10;98.20
4374;DHT22;2201;51.100;6.814;2022-11-04T05:20:29;9.00;98.20
4374;DHT22;2201;51.100;6.814;2022-11-04T05:22:58;9.00;98.20
4374;DHT22;2201;51.100;6.814;2022-11-04T05:25:25;9.00;98.20
4374;DHT22;2201;51.100;6.814;2022-11-04T05:27:52;9.00;98.20
4374;DHT22;2201;51.100;6.814;2022-11-04T05:30:19;8.90;98.20
4374;DHT22;2201;51.100;6.814;2022-11-04T05:32:45;8.90;98.20
4374;DHT22;2201;51.100;6.814;2022-11-04T05:35:12;8.90;98.20
4374;DHT22;2201;51.100;6.814;2022-11-04T05:37:41;8.80;98.20
4374;DHT22;2201;51.100;6.814;2022-11-04T05:40:08;8.80;98.20
4374;DHT22;2201;51.100;6.814;2022-11-04T05:42:35;8.70;98.20
4374;DHT22;2201;51.100;6.814;2022-11-04T05:45:02;8.70;98.20
4374;DHT22;2201;51.100;6.814;2022-11-04T05:47:29;8.70;98.20
4374;DHT22;2201;51.100;6.814;2022-11-04T05:49:56;8.70;98.20
4374;DHT22;2201;51.100;6.814;2022-11-04T05:52:23;8.60;98.20
4374;DHT22;2201;51.100;6.814;2022-11-04T05:54:51;8.60;98.20
4374;DHT22;2201;51.100;6.814;2022-11-04T05:57:17;8.60;98.20
4374;DHT22;2201;51.100;6.814;2022-11-04T05:59:44;8.60;98.20
4374;DHT22;2201;51.100;6.814;2022-11-04T06:02:11;8.50;98.20
4374;DHT22;2201;51.100;6.814;2022-11-04T06:04:38;8.50;98.20
4374;DHT22;2201;51.100;6.814;2022-11-04T06:07:05;8.60;98.20
4374;DHT22;2201;51.100;6.814;2022-11-04T06:09:32;8.60;98.20
4374;DHT22;2201;51.100;6.814;2022-11-04T06:12:07;8.60;98.20
4374;DHT22;2201;51.100;6.814;2022-11-04T06:14:34;8.60;98.20
4374;DHT22;2201;51.100;6.814;2022-11-04T06:17:01;8.60;98.20
4374;DHT22;2201;51.100;6.814;2022-11-04T06:19:28;8.60;98.20
4374;DHT22;2201;51.100;6.814;2022-11-04T06:21:55;8.60;98.20
4374;DHT22;2201;51.100;6.814;2022-11-04T06:24:22;8.70;98.20
4374;DHT22;2201;51.100;6.814;2022-11-04T06:26:49;8.70;98.20
4374;DHT22;2201;51.100;6.814;2022-11-04T06:29:17;8.70;98.20
4374;DHT22;2201;51.100;6.814;2022-11-04T06:31:44;8.70;98.20
4374;DHT22;2201;51.100;6.814;2022-11-04T06:34:11;8.80;98.20
4374;DHT22;2201;51.100;6.814;2022-11-04T06:36:37;8.80;98.20
4374;DHT22;2201;51.100;6.814;2022-11-04T06:39:04;8.80;98.20
4374;DHT22;2201;51.100;6.814;2022-11-04T06:41:31;8.80;98.20
4374;DHT22;2201;51.100;6.814;2022-11-04T06:43:58;8.80;98.20
4374;DHT22;2201;51.100;6.814;2022-11-04T06:46:29;8.80;98.20
4374;DHT22;2201;51.100;6.814;2022-11-04T06:48:57;8.80;98.20
4374;DHT22;2201;51.100;6.814;2022-11-04T06:51:25;8.80;98.20
4374;DHT22;2201;51.100;6.814;2022-11-04T06:53:52;8.90;98.20
4374;DHT22;2201;51.100;6.814;2022-11-04T06:56:19;8.90;98.20
4374;DHT22;2201;51.100;6.814;2022-11-04T06:58:47;9.00;98.20
4374;DHT22;2201;51.100;6.814;2022-11-04T07:01:14;9.00;98.20
4374;DHT22;2201;51.100;6.814;2022-11-04T07:03:42;9.00;98.20
4374;DHT22;2201;51.100;6.814;2022-11-04T07:06:10;9.10;98.20
4374;DHT22;2201;51.100;6.814;2022-11-04T07:08:37;9.10;98.20
4374;DHT22;2201;51.100;6.814;2022-11-04T07:11:05;9.10;98.20
4374;DHT22;2201;51.100;6.814;2022-11-04T07:13:32;9.20;98.20
4374;DHT22;2201;51.100;6.814;2022-11-04T07:15:59;9.20;98.20
4374;DHT22;2201;51.100;6.814;2022-11-04T07:18:26;9.20;98.20
4374;DHT22;2201;51.100;6.814;2022-11-04T07:20:56;9.30;98.20
4374;DHT22;2201;51.100;6.814;2022-11-04T07:23:23;9.30;98.20
4374;DHT22;2201;51.100;6.814;2022-11-04T07:25:50;9.30;98.20
4374;DHT22;2201;51.100;6.814;2022-11-04T07:28:18;9.40;98.20
4374;DHT22;2201;51.100;6.814;2022-11-04T07:30:45;9.40;98.20
4374;DHT22;2201;51.100;6.814;2022-11-04T07:33:12;9.50;98.20
4374;DHT22;2201;51.100;6.814;2022-11-04T07:35:39;9.50;98.20
4374;DHT22;2201;51.100;6.814;2022-11-04T07:38:07;9.50;98.20
4374;DHT22;2201;51.100;6.814;2022-11-04T07:40:34;9.50;98.20
4374;DHT22;2201;51.100;6.814;2022-11-04T07:43:01;9.60;98.20
4374;DHT22;2201;51.100;6.814;2022-11-04T07:45:28;9.60;98.20
4374;DHT22;2201;51.100;6.814;2022-11-04T07:47:54;9.70;98.20
4374;DHT22;2201;51.100;6.814;2022-11-04T07:50:21;9.70;98.20
4374;DHT22;2201;51.100;6.814;2022-11-04T07:52:50;9.70;98.20
4374;DHT22;2201;51.100;6.814;2022-11-04T07:55:19;9.70;98.20
4374;DHT22;2201;51.100;6.814;2022-11-04T07:57:46;9.70;98.20
4374;DHT22;2201;51.100;6.814;2022-11-04T08:00:16;9.70;98.20
4374;DHT22;2201;51.100;6.814;2022-11-04T08:02:43;9.80;98.20
4374;DHT22;2201;51.100;6.814;2022-11-04T08:05:11;9.80;98.20
4374;DHT22;2201;51.100;6.814;2022-11-04T08:07:39;9.80;98.20
4374;DHT22;2201;51.100;6.814;2022-11-04T08:10:07;9.80;98.20
4374;DHT22;2201;51.100;6.814;2022-11-04T08:12:35;9.80;98.20
4374;DHT22;2201;51.100;6.814;2022-11-04T08:15:04;9.80;98.20
4374;DHT22;2201;51.100;6.814;2022-11-04T08:17:31;9.80;98.20
4374;DHT22;2201;51.100;6.814;2022-11-04T08:19:58;9.90;98.20
4374;DHT22;2201;51.100;6.814;2022-11-04T08:22:24;9.90;98.20
4374;DHT22;2201;51.100;6.814;2022-11-04T08:24:51;10.00;98.20
4374;DHT22;2201;51.100;6.814;2022-11-04T08:27:18;10.00;98.20
4374;DHT22;2201;51.100;6.814;2022-11-04T08:29:46;10.00;98.20
4374;DHT22;2201;51.100;6.814;2022-11-04T08:32:14;10.10;98.20
4374;DHT22;2201;51.100;6.814;2022-11-04T08:34:41;10.10;98.20
4374;DHT22;2201;51.100;6.814;2022-11-04T08:37:07;10.10;98.20
4374;DHT22;2201;51.100;6.814;2022-11-04T08:39:34;10.20;98.20
4374;DHT22;2201;51.100;6.814;2022-11-04T08:42:01;10.30;98.20
4374;DHT22;2201;51.100;6.814;2022-11-04T08:44:28;10.30;98.20
4374;DHT22;2201;51.100;6.814;2022-11-04T08:46:56;10.30;98.20
4374;DHT22;2201;51.100;6.814;2022-11-04T08:49:23;10.40;98.20
4374;DHT22;2201;51.100;6.814;2022-11-04T08:51:50;10.40;98.20
4374;DHT22;2201;51.100;6.814;2022-11-04T08:54:21;10.50;98.20
4374;DHT22;2201;51.100;6.814;2022-11-04T08:56:48;10.50;98.20
4374;DHT22;2201;51.100;6.814;2022-11-04T08:59:15;10.60;98.20
4374;DHT22;2201;51.100;6.814;2022-11-04T09:01:42;10.60;98.20
4374;DHT22;2201;51.100;6.814;2022-11-04T09:04:11;10.70;98.20
4374;DHT22;2201;51.100;6.814;2022-11-04T09:06:39;10.70;98.20
4374;DHT22;2201;51.100;6.814;2022-11-04T09:09:08;10.70;98.20
4374;DHT22;2201;51.100;6.814;2022-11-04T09:11:38;10.80;98.20
4374;DHT22;2201;51.100;6.814;2022-11-04T09:14:06;10.90;98.20
4374;DHT22;2201;51.100;6.814;2022-11-04T09:16:34;10.90;98.20
4374;DHT22;2201;51.100;6.814;2022-11-04T09:19:01;11.00;98.20
4374;DHT22;2201;51.100;6.814;2022-11-04T09:21:29;11.00;98.20
4374;DHT22;2201;51.100;6.814;2022-11-04T09:23:56;11.00;98.20
4374;DHT22;2201;51.100;6.814;2022-11-04T09:26:23;11.10;98.20
4374;DHT22;2201;51.100;6.814;2022-11-04T09:28:53;11.10;98.20
4374;DHT22;2201;51.100;6.814;2022-11-04T09:31:20;11.30;98.20
4374;DHT22;2201;51.100;6.814;2022-11-04T09:33:47;11.40;98.20
4374;DHT22;2201;51.100;6.814;2022-11-04T09:36:15;11.40;98.20
4374;DHT22;2201;51.100;6.814;2022-11-04T09:38:44;11.60;98.20
4374;DHT22;2201;51.100;6.814;2022-11-04T09:41:44;11.80;98.20
4374;DHT22;2201;51.100;6.814;2022-11-04T09:44:23;12.00;98.20
4374;DHT22;2201;51.100;6.814;2022-11-04T09:46:53;12.00;98.20
4374;DHT22;2201;51.100;6.814;2022-11-04T09:49:26;12.10;98.20
4374;DHT22;2201;51.100;6.814;2022-11-04T09:51:54;12.10;98.20
4374;DHT22;2201;51.100;6.814;2022-11-04T09:54:26;12.10;98.20
4374;DHT22;2201;51.100;6.814;2022-11-04T09:56:55;12.20;98.20
4374;DHT22;2201;51.100;6.814;2022-11-04T09:59:26;12.40;98.20
4374;DHT22;2201;51.100;6.814;2022-11-04T10:02:07;12.60;98.20
4374;DHT22;2201;51.100;6.814;2022-11-04T10:04:50;12.70;98.20
4374;DHT22;2201;51.100;6.814;2022-11-04T10:07:36;12.80;98.20
4374;DHT22;2201;51.100;6.814;2022-11-04T10:10:14;12.90;98.20
4374;DHT22;2201;51.100;6.814;2022-11-04T10:13:05;13.00;98.20
4374;DHT22;2201;51.100;6.814;2022-11-04T10:15:46;13.10;98.20
4374;DHT22;2201;51.100;6.814;2022-11-04T10:18:28;13.10;98.20
4374;DHT22;2201;51.100;6.814;2022-11-04T10:21:03;13.10;98.20
4374;DHT22;2201;51.100;6.814;2022-11-04T10:23:39;13.20;98.20
4374;DHT22;2201;51.100;6.814;2022-11-04T10:26:14;13.30;98.20
4374;DHT22;2201;51.100;6.814;2022-11-04T10:28:43;13.30;98.20
4374;DHT22;2201;51.100;6.814;2022-11-04T10:31:14;13.40;98.20
4374;DHT22;2201;51.100;6.814;2022-11-04T10:33:44;13.50;98.20
4374;DHT22;2201;51.100;6.814;2022-11-04T10:36:12;13.50;98.20
4374;DHT22;2201;51.100;6.814;2022-11-04T10:38:42;13.50;98.20
4374;DHT22;2201;51.100;6.814;2022-11-04T10:41:24;13.50;98.20
4374;DHT22;2201;51.100;6.814;2022-11-04T10:43:54;13.50;98.20
4374;DHT22;2201;51.100;6.814;2022-11-04T10:46:33;13.50;98.20
4374;DHT22;2201;51.100;6.814;2022-11-04T10:49:20;13.50;98.20
4374;DHT22;2201;51.100;6.814;2022-11-04T10:51:50;13.50;98.20
4374;DHT22;2201;51.100;6.814;2022-11-04T10:54:17;13.50;98.20
4374;DHT22;2201;51.100;6.814;2022-11-04T10:56:49;13.40;98.20
4374;DHT22;2201;51.100;6.814;2022-11-04T10:59:22;13.50;98.20
4374;DHT22;2201;51.100;6.814;2022-11-04T11:01:51;13.40;98.20
4374;DHT22;2201;51.100;6.814;2022-11-04T11:04:28;13.40;98.20
4374;DHT22;2201;51.100;6.814;2022-11-04T11:06:56;13.30;98.20
4374;DHT22;2201;51.100;6.814;2022-11-04T11:09:25;13.30;98.20
4374;DHT22;2201;51.100;6.814;2022-11-04T11:11:58;13.30;98.20
4374;DHT22;2201;51.100;6.814;2022-11-04T11:14:34;13.40;98.20
4374;DHT22;2201;51.100;6.814;2022-11-04T11:17:20;13.40;98.20
4374;DHT22;2201;51.100;6.814;2022-11-04T11:19:49;13.50;98.20
4374;DHT22;2201;51.100;6.814;2022-11-04T11:25:53;13.40;98.20
4374;DHT22;2201;51.100;6.814;2022-11-04T11:28:23;13.50;98.20
4374;DHT22;2201;51.100;6.814;2022-11-04T11:30:56;13.50;98.20
4374;DHT22;2201;51.100;6.814;2022-11-04T11:33:26;13.60;98.20
4374;DHT22;2201;51.100;6.814;2022-11-04T11:35:57;13.60;98.20
4374;DHT22;2201;51.100;6.814;2022-11-04T11:38:26;13.70;98.20
4374;DHT22;2201;51.100;6.814;2022-11-04T11:41:04;13.70;98.20
4374;DHT22;2201;51.100;6.814;2022-11-04T11:43:34;13.70;98.20
4374;DHT22;2201;51.100;6.814;2022-11-04T11:46:02;13.80;98.20
4374;DHT22;2201;51.100;6.814;2022-11-04T11:48:31;13.80;98.20
4374;DHT22;2201;51.100;6.814;2022-11-04T11:50:58;13.90;98.20
4374;DHT22;2201;51.100;6.814;2022-11-04T11:53:27;13.90;98.20
4374;DHT22;2201;51.100;6.814;2022-11-04T11:56:02;14.00;98.20
4374;DHT22;2201;51.100;6.814;2022-11-04T11:58:40;14.00;98.20
4374;DHT22;2201;51.100;6.814;2022-11-04T12:01:15;14.00;98.20
4374;DHT22;2201;51.100;6.814;2022-11-04T12:03:46;14.10;98.20
4374;DHT22;2201;51.100;6.814;2022-11-04T12:06:24;14.10;98.20
4374;DHT22;2201;51.100;6.814;2022-11-04T12:09:01;14.10;98.20
4374;DHT22;2201;51.100;6.814;2022-11-04T12:11:38;14.10;98.20
4374;DHT22;2201;51.100;6.814;2022-11-04T12:14:13;14.10;98.20
4374;DHT22;2201;51.100;6.814;2022-11-04T12:16:47;14.10;98.20
4374;DHT22;2201;51.100;6.814;2022-11-04T12:19:35;14.10;98.20
4374;DHT22;2201;51.100;6.814;2022-11-04T12:22:12;14.10;98.20
4374;DHT22;2201;51.100;6.814;2022-11-04T12:24:46;14.10;98.20
4374;DHT22;2201;51.100;6.814;2022-11-04T12:27:23;14.00;98.20
4374;DHT22;2201;51.100;6.814;2022-11-04T12:30:05;14.00;98.20
4374;DHT22;2201;51.100;6.814;2022-11-04T12:32:43;14.00;98.20
4374;DHT22;2201;51.100;6.814;2022-11-04T12:35:36;14.00;98.20
4374;DHT22;2201;51.100;6.814;2022-11-04T12:38:19;14.00;98.20
4374;DHT22;2201;51.100;6.814;2022-11-04T12:40:50;14.00;98.20
4374;DHT22;2201;51.100;6.814;2022-11-04T12:43:26;14.00;98.20
4374;DHT22;2201;51.100;6.814;2022-11-04T12:46:04;14.00;98.20
4374;DHT22;2201;51.100;6.814;2022-11-04T12:48:50;14.00;98.20
4374;DHT22;2201;51.100;6.814;2022-11-04T12:51:27;14.00;98.20
4374;DHT22;2201;51.100;6.814;2022-11-04T12:54:07;14.00;98.20
4374;DHT22;2201;51.100;6.814;2022-11-04T12:56:41;14.00;98.20
4374;DHT22;2201;51.100;6.814;2022-11-04T12:59:19;14.00;98.20
4374;DHT22;2201;51.100;6.814;2022-11-04T13:01:55;14.00;98.20
4374;DHT22;2201;51.100;6.814;2022-11-04T13:04:25;14.00;98.20
4374;DHT22;2201;51.100;6.814;2022-11-04T13:06:56;14.00;98.20
4374;DHT22;2201;51.100;6.814;2022-11-04T13:09:31;14.00;98.20
4374;DHT22;2201;51.100;6.814;2022-11-04T13:12:03;13.90;98.20
4374;DHT22;2201;51.100;6.814;2022-11-04T13:14:38;13.80;98.20
4374;DHT22;2201;51.100;6.814;2022-11-04T13:17:12;13.60;98.20
4374;DHT22;2201;51.100;6.814;2022-11-04T13:19:45;13.50;98.20
4374;DHT22;2201;51.100;6.814;2022-11-04T13:22:15;13.50;98.20
4374;DHT22;2201;51.100;6.814;2022-11-04T13:24:48;13.50;98.20
4374;DHT22;2201;51.100;6.814;2022-11-04T13:27:18;13.50;98.20
4374;DHT22;2201;51.100;6.814;2022-11-04T13:29:47;13.50;98.20
4374;DHT22;2201;51.100;6.814;2022-11-04T13:32:22;13.50;98.20
4374;DHT22;2201;51.100;6.814;2022-11-04T13:34:55;13.50;98.20
4374;DHT22;2201;51.100;6.814;2022-11-04T13:37:25;13.60;98.20
4374;DHT22;2201;51.100;6.814;2022-11-04T13:40:11;13.60;98.20
4374;DHT22;2201;51.100;6.814;2022-11-04T13:43:04;13.70;98.20
4374;DHT22;2201;51.100;6.814;2022-11-04T13:45:55;13.70;98.20
4374;DHT22;2201;51.100;6.814;2022-11-04T13:48:25;13.80;98.20
4374;DHT22;2201;51.100;6.814;2022-11-04T13:50:57;13.80;98.20
4374;DHT22;2201;51.100;6.814;2022-11-04T13:53:42;13.90;98.20
4374;DHT22;2201;51.100;6.814;2022-11-04T13:56:25;13.90;98.20
4374;DHT22;2201;51.100;6.814;2022-11-04T13:58:55;13.90;98.20
4374;DHT22;2201;51.100;6.814;2022-11-04T14:01:28;13.90;98.20
4374;DHT22;2201;51.100;6.814;2022-11-04T14:04:13;14.00;98.20
4374;DHT22;2201;51.100;6.814;2022-11-04T14:06:54;14.00;98.20
4374;DHT22;2201;51.100;6.814;2022-11-04T14:12:33;13.90;98.20
4374;DHT22;2201;51.100;6.814;2022-11-04T14:15:12;13.90;98.20
4374;DHT22;2201;51.100;6.814;2022-11-04T14:18:02;13.90;98.20
4374;DHT22;2201;51.100;6.814;2022-11-04T14:20:34;13.90;98.20
4374;DHT22;2201;51.100;6.814;2022-11-04T14:23:04;13.80;98.20
4374;DHT22;2201;51.100;6.814;2022-11-04T14:25:35;13.80;98.20
4374;DHT22;2201;51.100;6.814;2022-11-04T14:28:17;13.80;98.20
4374;DHT22;2201;51.100;6.814;2022-11-04T14:30:52;13.70;98.20
4374;DHT22;2201;51.100;6.814;2022-11-04T14:33:30;13.70;98.20
4374;DHT22;2201;51.100;6.814;2022-11-04T14:36:21;13.70;98.20
4374;DHT22;2201;51.100;6.814;2022-11-04T14:38:53;13.60;98.20
4374;DHT22;2201;51.100;6.814;2022-11-04T14:41:28;13.60;98.20
4374;DHT22;2201;51.100;6.814;2022-11-04T14:43:58;13.60;98.20
4374;DHT22;2201;51.100;6.814;2022-11-04T14:46:29;13.50;98.20
4374;DHT22;2201;51.100;6.814;2022-11-04T14:48:57;13.40;98.20
4374;DHT22;2201;51.100;6.814;2022-11-04T14:51:30;13.40;98.20
4374;DHT22;2201;51.100;6.814;2022-11-04T14:54:03;13.30;98.20
4374;DHT22;2201;51.100;6.814;2022-11-04T14:56:31;13.30;98.20
4374;DHT22;2201;51.100;6.814;2022-11-04T14:58:59;13.30;98.20
4374;DHT22;2201;51.100;6.814;2022-11-04T15:01:28;13.20;98.20
4374;DHT22;2201;51.100;6.814;2022-11-04T15:04:04;13.20;98.20
4374;DHT22;2201;51.100;6.814;2022-11-04T15:06:33;13.10;98.20
4374;DHT22;2201;51.100;6.814;2022-11-04T15:09:01;13.10;98.20
4374;DHT22;2201;51.100;6.814;2022-11-04T15:11:29;13.10;98.20
4374;DHT22;2201;51.100;6.814;2022-11-04T15:14:16;13.00;98.20
4374;DHT22;2201;51.100;6.814;2022-11-04T15:16:46;13.00;98.20
4374;DHT22;2201;51.100;6.814;2022-11-04T15:19:19;13.00;98.20
4374;DHT22;2201;51.100;6.814;2022-11-04T15:21:52;12.90;98.20
4374;DHT22;2201;51.100;6.814;2022-11-04T15:24:21;12.80;98.20
4374;DHT22;2201;51.100;6.814;2022-11-04T15:26:50;12.80;98.20
4374;DHT22;2201;51.100;6.814;2022-11-04T15:29:19;12.70;98.20
4374;DHT22;2201;51.100;6.814;2022-11-04T15:31:53;12.60;98.20
4374;DHT22;2201;51.100;6.814;2022-11-04T15:34:22;12.50;98.20
4374;DHT22;2201;51.100;6.814;2022-11-04T15:36:52;12.50;98.20
4374;DHT22;2201;51.100;6.814;2022-11-04T15:39:21;12.50;98.20
4374;DHT22;2201;51.100;6.814;2022-11-04T15:41:51;12.40;98.20
4374;DHT22;2201;51.100;6.814;2022-11-04T15:44:37;12.30;98.20
4374;DHT22;2201;51.100;6.814;2022-11-04T15:47:22;12.30;98.20
4374;DHT22;2201;51.100;6.814;2022-11-04T15:49:50;12.20;98.20
4374;DHT22;2201;51.100;6.814;2022-11-04T15:52:22;12.20;98.20
4374;DHT22;2201;51.100;6.814;2022-11-04T15:54:50;12.10;98.20
4374;DHT22;2201;51.100;6.814;2022-11-04T15:57:19;12.00;98.20
4374;DHT22;2201;51.100;6.814;2022-11-04T15:59:51;12.00;98.20
4374;DHT22;2201;51.100;6.814;2022-11-04T16:02:27;11.90;98.20
4374;DHT22;2201;51.100;6.814;2022-11-04T16:05:03;11.90;98.20
4374;DHT22;2201;51.100;6.814;2022-11-04T16:07:34;11.80;98.20
4374;DHT22;2201;51.100;6.814;2022-11-04T16:10:02;11.80;98.20
4374;DHT22;2201;51.100;6.814;2022-11-04T16:12:34;11.70;98.20
4374;DHT22;2201;51.100;6.814;2022-11-04T16:15:02;11.60;98.20
4374;DHT22;2201;51.100;6.814;2022-11-04T16:17:30;11.60;98.20
4374;DHT22;2201;51.100;6.814;2022-11-04T16:19:59;11.50;98.20
4374;DHT22;2201;51.100;6.814;2022-11-04T16:22:31;11.50;98.20
4374;DHT22;2201;51.100;6.814;2022-11-04T16:25:04;11.50;98.20
4374;DHT22;2201;51.100;6.814;2022-11-04T16:27:33;11.40;98.20
4374;DHT22;2201;51.100;6.814;2022-11-04T16:30:06;11.40;98.20
4374;DHT22;2201;51.100;6.814;2022-11-04T16:32:44;11.30;98.20
4374;DHT22;2201;51.100;6.814;2022-11-04T16:35:15;11.30;98.20
4374;DHT22;2201;51.100;6.814;2022-11-04T16:37:44;11.30;98.20
4374;DHT22;2201;51.100;6.814;2022-11-04T16:40:11;11.30;98.20
4374;DHT22;2201;51.100;6.814;2022-11-04T16:42:38;11.20;98.20
4374;DHT22;2201;51.100;6.814;2022-11-04T16:45:06;11.20;98.20
4374;DHT22;2201;51.100;6.814;2022-11-04T16:47:36;11.20;98.20